sensor_id;sensor_type;location;lat;lon;timestamp;temperature;humidity
60309;DHT22;50313;52.894;6.492;2023-03-23T00:02:12;11.30;99.90
60309;DHT22;50313;52.894;6.492;2023-03-23T00:04:38;11.30;99.90
60309;DHT22;50313;52.894;6.492;2023-03-23T00:07:04;11.30;99.90
60309;DHT22;50313;52.894;6.492;2023-03-23T00:09:30;11.30;99.90
60309;DHT22;50313;52.894;6.492;2023-03-23T00:12:00;11.30;99.90
60309;DHT22;50313;52.894;6.492;2023-03-23T00:14:32;11.30;99.90
60309;DHT22;50313;52.894;6.492;2023-03-23T00:17:08;11.30;99.90
60309;DHT22;50313;52.894;6.492;2023-03-23T00:19:36;11.30;99.90
60309;DHT22;50313;52.894;6.492;2023-03-23T00:22:14;11.30;99.90
60309;DHT22;50313;52.894;6.492;2023-03-23T00:24:41;11.30;99.90
60309;DHT22;50313;52.894;6.492;2023-03-23T00:27:07;11.30;99.90
60309;DHT22;50313;52.894;6.492;2023-03-23T00:29:34;11.40;99.90
60309;DHT22;50313;52.894;6.492;2023-03-23T00:32:00;11.30;99.90
60309;DHT22;50313;52.894;6.492;2023-03-23T00:34:27;11.30;99.90
60309;DHT22;50313;52.894;6.492;2023-03-23T00:36:57;11.30;99.90
60309;DHT22;50313;52.894;6.492;2023-03-23T00:39:25;11.40;99.90
60309;DHT22;50313;52.894;6.492;2023-03-23T00:41:52;11.30;99.90
60309;DHT22;50313;52.894;6.492;2023-03-23T00:44:18;11.30;99.90
60309;DHT22;50313;52.894;6.492;2023-03-23T00:46:47;11.30;99.90
60309;DHT22;50313;52.894;6.492;2023-03-23T00:49:17;11.30;99.90
60309;DHT22;50313;52.894;6.492;2023-03-23T00:51:44;11.40;99.90
60309;DHT22;50313;52.894;6.492;2023-03-23T00:54:10;11.40;99.90
60309;DHT22;50313;52.894;6.492;2023-03-23T00:56:37;11.40;99.90
60309;DHT22;50313;52.894;6.492;2023-03-23T00:59:04;11.40;99.90
60309;DHT22;50313;52.894;6.492;2023-03-23T01:01:30;11.30;99.90
60309;DHT22;50313;52.894;6.492;2023-03-23T01:03:58;11.30;99.90
60309;DHT22;50313;52.894;6.492;2023-03-23T01:06:27;11.40;99.90
60309;DHT22;50313;52.894;6.492;2023-03-23T01:08:54;11.40;99.90
60309;DHT22;50313;52.894;6.492;2023-03-23T01:11:22;11.30;99.90
60309;DHT22;50313;52.894;6.492;2023-03-23T01:13:48;11.30;99.90
60309;DHT22;50313;52.894;6.492;2023-03-23T01:16:13;11.40;99.90
60309;DHT22;50313;52.894;6.492;2023-03-23T01:18:40;11.40;99.90
60309;DHT22;50313;52.894;6.492;2023-03-23T01:21:08;11.30;99.90
60309;DHT22;50313;52.894;6.492;2023-03-23T01:23:35;11.40;99.90
60309;DHT22;50313;52.894;6.492;2023-03-23T01:26:10;11.30;99.90
60309;DHT22;50313;52.894;6.492;2023-03-23T01:28:37;11.30;99.90
60309;DHT22;50313;52.894;6.492;2023-03-23T01:31:05;11.30;99.90
60309;DHT22;50313;52.894;6.492;2023-03-23T01:33:31;11.40;99.90
60309;DHT22;50313;52.894;6.492;2023-03-23T01:35:58;11.40;99.90
60309;DHT22;50313;52.894;6.492;2023-03-23T01:38:27;11.40;99.90
60309;DHT22;50313;52.894;6.492;2023-03-23T01:40:52;11.30;99.90
60309;DHT22;50313;52.894;6.492;2023-03-23T01:43:18;11.40;99.90
60309;DHT22;50313;52.894;6.492;2023-03-23T01:45:44;11.40;99.90
60309;DHT22;50313;52.894;6.492;2023-03-23T01:48:21;11.30;99.90
60309;DHT22;50313;52.894;6.492;2023-03-23T01:53:18;11.40;99.90
60309;DHT22;50313;52.894;6.492;2023-03-23T01:55:44;11.50;99.90
60309;DHT22;50313;52.894;6.492;2023-03-23T01:58:15;11.40;99.90
60309;DHT22;50313;52.894;6.492;2023-03-23T02:00:42;11.40;99.90
60309;DHT22;50313;52.894;6.492;2023-03-23T02:03:09;11.40;99.90
60309;DHT22;50313;52.894;6.492;2023-03-23T02:05:42;11.40;99.90
60309;DHT22;50313;52.894;6.492;2023-03-23T02:08:09;11.40;99.90
60309;DHT22;50313;52.894;6.492;2023-03-23T02:10:37;11.40;99.90
60309;DHT22;50313;52.894;6.492;2023-03-23T02:13:04;11.40;99.90
60309;DHT22;50313;52.894;6.492;2023-03-23T02:15:48;11.40;99.90
60309;DHT22;50313;52.894;6.492;2023-03-23T02:29:41;11.20;99.90
60309;DHT22;50313;52.894;6.492;2023-03-23T02:35:33;11.30;99.90
60309;DHT22;50313;52.894;6.492;2023-03-23T02:38:22;11.20;99.90
60309;DHT22;50313;52.894;6.492;2023-03-23T02:40:49;11.30;99.90
60309;DHT22;50313;52.894;6.492;2023-03-23T02:43:21;11.30;99.90
60309;DHT22;50313;52.894;6.492;2023-03-23T02:45:48;11.20;99.90
60309;DHT22;50313;52.894;6.492;2023-03-23T02:48:17;11.20;99.90
60309;DHT22;50313;52.894;6.492;2023-03-23T02:50:47;11.30;99.90
60309;DHT22;50313;52.894;6.492;2023-03-23T02:53:16;11.30;99.90
60309;DHT22;50313;52.894;6.492;2023-03-23T02:55:44;11.30;99.90
60309;DHT22;50313;52.894;6.492;2023-03-23T02:58:11;11.30;99.90
60309;DHT22;50313;52.894;6.492;2023-03-23T03:00:38;11.20;99.90
60309;DHT22;50313;52.894;6.492;2023-03-23T03:03:05;11.30;99.90
60309;DHT22;50313;52.894;6.492;2023-03-23T03:09:07;11.30;99.90
60309;DHT22;50313;52.894;6.492;2023-03-23T03:11:36;11.30;99.90
60309;DHT22;50313;52.894;6.492;2023-03-23T03:14:12;11.40;99.90
60309;DHT22;50313;52.894;6.492;2023-03-23T03:17:02;11.30;99.90
60309;DHT22;50313;52.894;6.492;2023-03-23T03:19:55;11.30;99.90
60309;DHT22;50313;52.894;6.492;2023-03-23T03:22:23;11.30;99.90
60309;DHT22;50313;52.894;6.492;2023-03-23T03:24:55;11.40;99.90
60309;DHT22;50313;52.894;6.492;2023-03-23T03:27:22;11.30;99.90
60309;DHT22;50313;52.894;6.492;2023-03-23T03:29:53;11.40;99.90
60309;DHT22;50313;52.894;6.492;2023-03-23T03:32:23;11.40;99.90
60309;DHT22;50313;52.894;6.492;2023-03-23T03:34:51;11.30;99.90
60309;DHT22;50313;52.894;6.492;2023-03-23T03:37:18;11.40;99.90
60309;DHT22;50313;52.894;6.492;2023-03-23T03:39:44;11.30;99.90
60309;DHT22;50313;52.894;6.492;2023-03-23T03:42:10;11.40;99.90
60309;DHT22;50313;52.894;6.492;2023-03-23T03:44:35;11.30;99.90
60309;DHT22;50313;52.894;6.492;2023-03-23T03:47:01;11.30;99.90
60309;DHT22;50313;52.894;6.492;2023-03-23T03:49:27;11.30;99.90
60309;DHT22;50313;52.894;6.492;2023-03-23T03:51:53;11.30;99.90
60309;DHT22;50313;52.894;6.492;2023-03-23T03:54:19;11.30;99.90
60309;DHT22;50313;52.894;6.492;2023-03-23T03:56:45;11.40;99.90
60309;DHT22;50313;52.894;6.492;2023-03-23T03:59:11;11.40;99.90
60309;DHT22;50313;52.894;6.492;2023-03-23T04:01:38;11.40;99.90
60309;DHT22;50313;52.894;6.492;2023-03-23T04:04:05;11.40;99.90
60309;DHT22;50313;52.894;6.492;2023-03-23T04:06:33;11.40;99.90
60309;DHT22;50313;52.894;6.492;2023-03-23T04:09:04;11.40;99.90
60309;DHT22;50313;52.894;6.492;2023-03-23T04:11:32;11.40;99.90
60309;DHT22;50313;52.894;6.492;2023-03-23T04:13:58;11.40;99.90
60309;DHT22;50313;52.894;6.492;2023-03-23T04:16:23;11.40;99.90
60309;DHT22;50313;52.894;6.492;2023-03-23T04:18:49;11.40;99.90
60309;DHT22;50313;52.894;6.492;2023-03-23T04:21:15;11.50;99.90
60309;DHT22;50313;52.894;6.492;2023-03-23T04:23:41;11.50;99.90
60309;DHT22;50313;52.894;6.492;2023-03-23T04:26:07;11.50;99.90
60309;DHT22;50313;52.894;6.492;2023-03-23T04:28:33;11.50;99.90
60309;DHT22;50313;52.894;6.492;2023-03-23T04:31:03;11.40;99.90
60309;DHT22;50313;52.894;6.492;2023-03-23T04:33:29;11.40;99.90
60309;DHT22;50313;52.894;6.492;2023-03-23T04:35:58;11.50;99.90
60309;DHT22;50313;52.894;6.492;2023-03-23T04:38:27;11.50;99.90
60309;DHT22;50313;52.894;6.492;2023-03-23T04:40:54;11.40;99.90
60309;DHT22;50313;52.894;6.492;2023-03-23T04:43:22;11.30;99.90
60309;DHT22;50313;52.894;6.492;2023-03-23T04:45:55;11.30;99.90
60309;DHT22;50313;52.894;6.492;2023-03-23T04:48:26;11.20;99.90
60309;DHT22;50313;52.894;6.492;2023-03-23T04:50:52;11.00;99.90
60309;DHT22;50313;52.894;6.492;2023-03-23T04:53:18;10.90;99.90
60309;DHT22;50313;52.894;6.492;2023-03-23T04:55:45;10.70;99.90
60309;DHT22;50313;52.894;6.492;2023-03-23T04:58:13;10.50;99.90
60309;DHT22;50313;52.894;6.492;2023-03-23T05:00:40;10.40;99.90
60309;DHT22;50313;52.894;6.492;2023-03-23T05:03:10;10.20;99.90
60309;DHT22;50313;52.894;6.492;2023-03-23T05:05:36;10.10;99.90
60309;DHT22;50313;52.894;6.492;2023-03-23T05:08:02;9.90;99.90
60309;DHT22;50313;52.894;6.492;2023-03-23T05:10:28;10.00;99.90
60309;DHT22;50313;52.894;6.492;2023-03-23T05:12:53;10.00;99.90
60309;DHT22;50313;52.894;6.492;2023-03-23T05:15:20;9.90;99.90
60309;DHT22;50313;52.894;6.492;2023-03-23T05:17:45;9.90;99.90
60309;DHT22;50313;52.894;6.492;2023-03-23T05:20:15;10.00;99.90
60309;DHT22;50313;52.894;6.492;2023-03-23T05:22:46;10.10;99.90
60309;DHT22;50313;52.894;6.492;2023-03-23T05:25:15;10.10;99.90
60309;DHT22;50313;52.894;6.492;2023-03-23T05:27:45;10.10;99.90
60309;DHT22;50313;52.894;6.492;2023-03-23T05:30:15;10.10;99.90
60309;DHT22;50313;52.894;6.492;2023-03-23T05:32:43;10.10;99.90
60309;DHT22;50313;52.894;6.492;2023-03-23T05:35:11;10.20;99.90
60309;DHT22;50313;52.894;6.492;2023-03-23T05:37:37;10.30;99.90
60309;DHT22;50313;52.894;6.492;2023-03-23T05:40:05;10.40;99.90
60309;DHT22;50313;52.894;6.492;2023-03-23T05:42:33;10.50;99.90
60309;DHT22;50313;52.894;6.492;2023-03-23T05:45:00;10.60;99.90
60309;DHT22;50313;52.894;6.492;2023-03-23T05:47:26;10.60;99.90
60309;DHT22;50313;52.894;6.492;2023-03-23T05:49:52;10.50;99.90
60309;DHT22;50313;52.894;6.492;2023-03-23T05:52:19;10.40;99.90
60309;DHT22;50313;52.894;6.492;2023-03-23T05:54:46;10.40;99.90
60309;DHT22;50313;52.894;6.492;2023-03-23T05:57:12;10.40;99.90
60309;DHT22;50313;52.894;6.492;2023-03-23T05:59:38;10.30;99.90
60309;DHT22;50313;52.894;6.492;2023-03-23T06:02:04;10.30;99.90
60309;DHT22;50313;52.894;6.492;2023-03-23T06:04:30;10.30;99.90
60309;DHT22;50313;52.894;6.492;2023-03-23T06:07:00;10.20;99.90
60309;DHT22;50313;52.894;6.492;2023-03-23T06:09:27;10.20;99.90
60309;DHT22;50313;52.894;6.492;2023-03-23T06:11:54;10.20;99.90
60309;DHT22;50313;52.894;6.492;2023-03-23T06:21:33;10.20;99.90
60309;DHT22;50313;52.894;6.492;2023-03-23T06:23:59;10.20;99.90
60309;DHT22;50313;52.894;6.492;2023-03-23T06:26:38;10.20;99.90
60309;DHT22;50313;52.894;6.492;2023-03-23T06:29:05;10.20;99.90
60309;DHT22;50313;52.894;6.492;2023-03-23T06:31:41;10.20;99.90
60309;DHT22;50313;52.894;6.492;2023-03-23T06:34:08;10.20;99.90
60309;DHT22;50313;52.894;6.492;2023-03-23T06:36:37;10.30;99.90
60309;DHT22;50313;52.894;6.492;2023-03-23T06:39:04;10.30;99.90
60309;DHT22;50313;52.894;6.492;2023-03-23T06:41:31;10.30;99.90
60309;DHT22;50313;52.894;6.492;2023-03-23T06:43:58;10.40;99.90
60309;DHT22;50313;52.894;6.492;2023-03-23T06:46:24;10.40;99.90
60309;DHT22;50313;52.894;6.492;2023-03-23T06:48:50;10.40;99.90
60309;DHT22;50313;52.894;6.492;2023-03-23T06:51:17;10.40;99.90
60309;DHT22;50313;52.894;6.492;2023-03-23T06:53:44;10.50;99.90
60309;DHT22;50313;52.894;6.492;2023-03-23T06:56:10;10.50;99.90
60309;DHT22;50313;52.894;6.492;2023-03-23T06:58:39;10.50;99.90
60309;DHT22;50313;52.894;6.492;2023-03-23T07:01:05;10.60;99.90
60309;DHT22;50313;52.894;6.492;2023-03-23T07:03:31;10.60;99.90
60309;DHT22;50313;52.894;6.492;2023-03-23T07:05:58;10.70;99.90
60309;DHT22;50313;52.894;6.492;2023-03-23T07:08:25;10.70;99.90
60309;DHT22;50313;52.894;6.492;2023-03-23T07:10:52;10.60;99.90
60309;DHT22;50313;52.894;6.492;2023-03-23T07:13:19;10.70;99.90
60309;DHT22;50313;52.894;6.492;2023-03-23T07:15:46;10.70;99.90
60309;DHT22;50313;52.894;6.492;2023-03-23T07:18:12;10.70;99.90
60309;DHT22;50313;52.894;6.492;2023-03-23T07:20:37;10.70;99.90
60309;DHT22;50313;52.894;6.492;2023-03-23T07:23:09;10.70;99.90
60309;DHT22;50313;52.894;6.492;2023-03-23T07:25:35;10.70;99.90
60309;DHT22;50313;52.894;6.492;2023-03-23T07:28:05;10.80;99.90
60309;DHT22;50313;52.894;6.492;2023-03-23T07:30:31;10.80;99.90
60309;DHT22;50313;52.894;6.492;2023-03-23T07:32:58;10.80;99.90
60309;DHT22;50313;52.894;6.492;2023-03-23T07:35:24;10.90;99.90
60309;DHT22;50313;52.894;6.492;2023-03-23T07:37:51;10.90;99.90
60309;DHT22;50313;52.894;6.492;2023-03-23T07:40:18;11.00;99.90
60309;DHT22;50313;52.894;6.492;2023-03-23T07:42:52;11.10;99.90
60309;DHT22;50313;52.894;6.492;2023-03-23T07:45:18;11.10;99.90
60309;DHT22;50313;52.894;6.492;2023-03-23T07:47:44;11.20;99.90
60309;DHT22;50313;52.894;6.492;2023-03-23T07:50:10;11.20;99.90
60309;DHT22;50313;52.894;6.492;2023-03-23T07:52:38;11.20;99.90
60309;DHT22;50313;52.894;6.492;2023-03-23T07:55:05;11.30;99.90
60309;DHT22;50313;52.894;6.492;2023-03-23T07:57:32;11.30;99.90
60309;DHT22;50313;52.894;6.492;2023-03-23T07:59:59;11.30;99.90
60309;DHT22;50313;52.894;6.492;2023-03-23T08:02:26;11.30;99.90
60309;DHT22;50313;52.894;6.492;2023-03-23T08:04:55;11.30;99.90
60309;DHT22;50313;52.894;6.492;2023-03-23T08:07:22;11.30;99.90
60309;DHT22;50313;52.894;6.492;2023-03-23T08:09:48;11.30;99.90
60309;DHT22;50313;52.894;6.492;2023-03-23T08:12:14;11.30;99.90
60309;DHT22;50313;52.894;6.492;2023-03-23T08:14:39;11.30;99.90
60309;DHT22;50313;52.894;6.492;2023-03-23T08:17:07;11.40;99.90
60309;DHT22;50313;52.894;6.492;2023-03-23T08:19:34;11.40;99.90
60309;DHT22;50313;52.894;6.492;2023-03-23T08:22:05;11.40;99.90
60309;DHT22;50313;52.894;6.492;2023-03-23T08:24:32;11.50;99.90
60309;DHT22;50313;52.894;6.492;2023-03-23T08:26:59;11.60;99.90
60309;DHT22;50313;52.894;6.492;2023-03-23T08:29:25;11.60;99.90
60309;DHT22;50313;52.894;6.492;2023-03-23T08:31:51;11.50;99.90
60309;DHT22;50313;52.894;6.492;2023-03-23T08:34:17;11.60;99.90
60309;DHT22;50313;52.894;6.492;2023-03-23T08:36:42;11.50;99.90
60309;DHT22;50313;52.894;6.492;2023-03-23T08:39:12;11.60;99.90
60309;DHT22;50313;52.894;6.492;2023-03-23T08:41:40;11.60;99.90
60309;DHT22;50313;52.894;6.492;2023-03-23T08:44:06;11.60;99.90
60309;DHT22;50313;52.894;6.492;2023-03-23T08:46:34;11.60;99.90
60309;DHT22;50313;52.894;6.492;2023-03-23T08:48:59;11.60;99.90
60309;DHT22;50313;52.894;6.492;2023-03-23T08:51:25;11.60;99.90
60309;DHT22;50313;52.894;6.492;2023-03-23T08:53:52;11.50;99.90
60309;DHT22;50313;52.894;6.492;2023-03-23T08:56:18;11.50;99.90
60309;DHT22;50313;52.894;6.492;2023-03-23T08:58:43;11.50;99.90
60309;DHT22;50313;52.894;6.492;2023-03-23T09:01:09;11.40;99.90
60309;DHT22;50313;52.894;6.492;2023-03-23T09:03:38;11.40;99.90
60309;DHT22;50313;52.894;6.492;2023-03-23T09:06:06;11.40;99.90
60309;DHT22;50313;52.894;6.492;2023-03-23T09:08:33;11.40;99.90
60309;DHT22;50313;52.894;6.492;2023-03-23T09:11:06;11.60;99.90
60309;DHT22;50313;52.894;6.492;2023-03-23T09:13:36;11.80;99.90
60309;DHT22;50313;52.894;6.492;2023-03-23T09:16:04;11.90;99.90
60309;DHT22;50313;52.894;6.492;2023-03-23T09:18:30;12.00;99.90
60309;DHT22;50313;52.894;6.492;2023-03-23T09:20:58;12.00;99.90
60309;DHT22;50313;52.894;6.492;2023-03-23T09:23:25;12.00;99.90
60309;DHT22;50313;52.894;6.492;2023-03-23T09:25:51;12.10;99.90
60309;DHT22;50313;52.894;6.492;2023-03-23T09:28:18;12.10;99.90
60309;DHT22;50313;52.894;6.492;2023-03-23T09:30:44;12.00;99.90
60309;DHT22;50313;52.894;6.492;2023-03-23T09:33:11;11.90;99.90
60309;DHT22;50313;52.894;6.492;2023-03-23T09:35:37;12.00;99.90
60309;DHT22;50313;52.894;6.492;2023-03-23T09:38:05;12.10;99.90
60309;DHT22;50313;52.894;6.492;2023-03-23T09:40:58;12.00;99.90
60309;DHT22;50313;52.894;6.492;2023-03-23T09:44:10;11.90;99.90
60309;DHT22;50313;52.894;6.492;2023-03-23T09:46:50;12.20;99.90
60309;DHT22;50313;52.894;6.492;2023-03-23T09:49:28;12.40;99.90
60309;DHT22;50313;52.894;6.492;2023-03-23T09:52:11;12.40;99.90
60309;DHT22;50313;52.894;6.492;2023-03-23T09:54:49;12.40;99.90
60309;DHT22;50313;52.894;6.492;2023-03-23T09:57:26;12.30;99.90
60309;DHT22;50313;52.894;6.492;2023-03-23T10:02:55;12.20;99.90
60309;DHT22;50313;52.894;6.492;2023-03-23T10:05:39;12.60;99.90
60309;DHT22;50313;52.894;6.492;2023-03-23T10:08:20;12.90;99.90
60309;DHT22;50313;52.894;6.492;2023-03-23T10:16:19;12.90;99.90
60309;DHT22;50313;52.894;6.492;2023-03-23T10:18:58;12.70;99.90
60309;DHT22;50313;52.894;6.492;2023-03-23T10:21:26;12.60;99.90
60309;DHT22;50313;52.894;6.492;2023-03-23T10:24:00;12.60;99.90
60309;DHT22;50313;52.894;6.492;2023-03-23T10:29:42;12.30;99.90
60309;DHT22;50313;52.894;6.492;2023-03-23T10:32:13;12.20;99.90
60309;DHT22;50313;52.894;6.492;2023-03-23T10:35:01;12.10;99.90
60309;DHT22;50313;52.894;6.492;2023-03-23T10:37:39;12.40;99.90
60309;DHT22;50313;52.894;6.492;2023-03-23T10:40:14;12.50;99.90
60309;DHT22;50313;52.894;6.492;2023-03-23T10:42:41;12.60;99.90
60309;DHT22;50313;52.894;6.492;2023-03-23T10:45:23;12.80;99.90
60309;DHT22;50313;52.894;6.492;2023-03-23T10:48:19;13.00;99.90
60309;DHT22;50313;52.894;6.492;2023-03-23T10:50:49;13.10;99.90
60309;DHT22;50313;52.894;6.492;2023-03-23T10:53:32;13.00;99.90
60309;DHT22;50313;52.894;6.492;2023-03-23T10:56:00;12.90;99.90
60309;DHT22;50313;52.894;6.492;2023-03-23T10:58:31;12.90;99.90
60309;DHT22;50313;52.894;6.492;2023-03-23T11:00:58;13.00;99.90
60309;DHT22;50313;52.894;6.492;2023-03-23T11:03:47;13.20;99.90
60309;DHT22;50313;52.894;6.492;2023-03-23T11:06:22;13.20;99.90
60309;DHT22;50313;52.894;6.492;2023-03-23T11:08:55;13.50;99.90
60309;DHT22;50313;52.894;6.492;2023-03-23T11:11:39;13.80;99.90
60309;DHT22;50313;52.894;6.492;2023-03-23T11:14:29;13.80;99.90
60309;DHT22;50313;52.894;6.492;2023-03-23T11:16:57;13.50;99.90
60309;DHT22;50313;52.894;6.492;2023-03-23T11:21:51;14.00;99.90
60309;DHT22;50313;52.894;6.492;2023-03-23T11:24:22;14.00;99.90
60309;DHT22;50313;52.894;6.492;2023-03-23T11:26:49;14.30;99.90
60309;DHT22;50313;52.894;6.492;2023-03-23T11:29:24;14.40;99.90
60309;DHT22;50313;52.894;6.492;2023-03-23T11:31:53;14.60;99.90
60309;DHT22;50313;52.894;6.492;2023-03-23T11:34:34;14.70;99.90
60309;DHT22;50313;52.894;6.492;2023-03-23T11:37:07;14.60;99.90
60309;DHT22;50313;52.894;6.492;2023-03-23T11:48:21;14.70;99.90
60309;DHT22;50313;52.894;6.492;2023-03-23T11:50:53;14.70;99.90
60309;DHT22;50313;52.894;6.492;2023-03-23T11:54:28;14.90;99.90
60309;DHT22;50313;52.894;6.492;2023-03-23T12:00:53;14.80;99.90
60309;DHT22;50313;52.894;6.492;2023-03-23T12:03:20;14.60;99.90
60309;DHT22;50313;52.894;6.492;2023-03-23T12:11:23;14.70;99.90
60309;DHT22;50313;52.894;6.492;2023-03-23T12:17:06;14.70;99.90
60309;DHT22;50313;52.894;6.492;2023-03-23T12:28:01;15.10;99.90
60309;DHT22;50313;52.894;6.492;2023-03-23T12:30:41;15.00;99.90
60309;DHT22;50313;52.894;6.492;2023-03-23T12:41:56;14.70;99.90
60309;DHT22;50313;52.894;6.492;2023-03-23T12:44:37;14.70;99.90
60309;DHT22;50313;52.894;6.492;2023-03-23T12:50:12;15.10;99.90
60309;DHT22;50313;52.894;6.492;2023-03-23T12:53:06;15.00;99.90
60309;DHT22;50313;52.894;6.492;2023-03-23T12:56:06;15.10;99.90
60309;DHT22;50313;52.894;6.492;2023-03-23T12:58:40;15.30;99.90
60309;DHT22;50313;52.894;6.492;2023-03-23T13:01:19;14.90;99.90
60309;DHT22;50313;52.894;6.492;2023-03-23T13:03:58;14.80;99.90
60309;DHT22;50313;52.894;6.492;2023-03-23T13:09:32;14.70;99.90
60309;DHT22;50313;52.894;6.492;2023-03-23T13:12:02;14.60;99.90
60309;DHT22;50313;52.894;6.492;2023-03-23T13:17:20;14.90;99.90
60309;DHT22;50313;52.894;6.492;2023-03-23T13:25:45;15.50;99.90
60309;DHT22;50313;52.894;6.492;2023-03-23T13:28:45;15.50;99.90
60309;DHT22;50313;52.894;6.492;2023-03-23T13:31:17;15.40;99.90
60309;DHT22;50313;52.894;6.492;2023-03-23T13:33:57;15.10;99.90
60309;DHT22;50313;52.894;6.492;2023-03-23T13:37:02;15.00;99.90
60309;DHT22;50313;52.894;6.492;2023-03-23T13:39:24;14.90;98.80
60309;DHT22;50313;52.894;6.492;2023-03-23T13:42:02;14.80;99.20
60309;DHT22;50313;52.894;6.492;2023-03-23T13:50:11;14.40;99.90
60309;DHT22;50313;52.894;6.492;2023-03-23T13:57:53;14.20;99.90
60309;DHT22;50313;52.894;6.492;2023-03-23T14:05:34;13.70;99.90
60309;DHT22;50313;52.894;6.492;2023-03-23T14:10:56;13.70;99.90
60309;DHT22;50313;52.894;6.492;2023-03-23T14:16:22;14.40;99.90
60309;DHT22;50313;52.894;6.492;2023-03-23T14:21:56;15.30;99.90
60309;DHT22;50313;52.894;6.492;2023-03-23T14:24:25;15.20;99.90
60309;DHT22;50313;52.894;6.492;2023-03-23T14:26:54;15.00;99.90
60309;DHT22;50313;52.894;6.492;2023-03-23T14:29:27;14.70;99.90
60309;DHT22;50313;52.894;6.492;2023-03-23T14:31:55;14.50;99.90
60309;DHT22;50313;52.894;6.492;2023-03-23T14:34:32;14.20;99.90
60309;DHT22;50313;52.894;6.492;2023-03-23T14:36:59;14.10;99.90
60309;DHT22;50313;52.894;6.492;2023-03-23T14:39:32;14.00;99.90
60309;DHT22;50313;52.894;6.492;2023-03-23T14:42:10;14.00;99.90
60309;DHT22;50313;52.894;6.492;2023-03-23T14:44:48;14.00;99.90
60309;DHT22;50313;52.894;6.492;2023-03-23T14:47:40;13.90;99.90
60309;DHT22;50313;52.894;6.492;2023-03-23T14:50:29;14.00;99.90
60309;DHT22;50313;52.894;6.492;2023-03-23T14:53:21;14.30;99.90
60309;DHT22;50313;52.894;6.492;2023-03-23T14:55:54;14.80;99.90
60309;DHT22;50313;52.894;6.492;2023-03-23T14:58:23;15.20;99.90
60309;DHT22;50313;52.894;6.492;2023-03-23T15:00:52;15.40;99.90
60309;DHT22;50313;52.894;6.492;2023-03-23T15:03:20;15.70;99.90
60309;DHT22;50313;52.894;6.492;2023-03-23T15:05:51;15.90;99.10
60309;DHT22;50313;52.894;6.492;2023-03-23T15:08:26;16.00;98.90
60309;DHT22;50313;52.894;6.492;2023-03-23T15:13:49;16.00;97.30
60309;DHT22;50313;52.894;6.492;2023-03-23T15:16:24;15.70;97.20
60309;DHT22;50313;52.894;6.492;2023-03-23T15:19:01;15.80;97.70
60309;DHT22;50313;52.894;6.492;2023-03-23T15:21:46;16.00;97.30
60309;DHT22;50313;52.894;6.492;2023-03-23T15:24:48;16.10;96.90
60309;DHT22;50313;52.894;6.492;2023-03-23T15:27:28;16.20;96.80
60309;DHT22;50313;52.894;6.492;2023-03-23T15:30:00;16.50;96.40
60309;DHT22;50313;52.894;6.492;2023-03-23T15:32:39;16.20;96.20
60309;DHT22;50313;52.894;6.492;2023-03-23T15:35:17;16.60;96.30
60309;DHT22;50313;52.894;6.492;2023-03-23T15:37:49;16.80;95.90
60309;DHT22;50313;52.894;6.492;2023-03-23T15:40:18;16.50;95.10
60309;DHT22;50313;52.894;6.492;2023-03-23T15:42:49;16.40;95.70
60309;DHT22;50313;52.894;6.492;2023-03-23T15:45:27;16.70;95.90
60309;DHT22;50313;52.894;6.492;2023-03-23T15:47:53;16.70;96.00
60309;DHT22;50313;52.894;6.492;2023-03-23T15:52:54;17.20;94.20
60309;DHT22;50313;52.894;6.492;2023-03-23T15:55:35;16.50;94.40
60309;DHT22;50313;52.894;6.492;2023-03-23T15:58:09;16.80;95.00
60309;DHT22;50313;52.894;6.492;2023-03-23T16:00:36;16.60;94.80
60309;DHT22;50313;52.894;6.492;2023-03-23T16:03:05;17.00;95.20
60309;DHT22;50313;52.894;6.492;2023-03-23T16:05:34;17.00;94.60
60309;DHT22;50313;52.894;6.492;2023-03-23T16:08:00;16.90;92.80
60309;DHT22;50313;52.894;6.492;2023-03-23T16:10:27;16.90;94.30
60309;DHT22;50313;52.894;6.492;2023-03-23T16:12:53;16.00;94.10
60309;DHT22;50313;52.894;6.492;2023-03-23T16:15:18;16.10;95.50
60309;DHT22;50313;52.894;6.492;2023-03-23T16:17:44;15.80;96.20
60309;DHT22;50313;52.894;6.492;2023-03-23T16:20:19;15.50;96.50
60309;DHT22;50313;52.894;6.492;2023-03-23T16:22:49;15.40;97.30
60309;DHT22;50313;52.894;6.492;2023-03-23T16:25:18;15.00;97.50
60309;DHT22;50313;52.894;6.492;2023-03-23T16:27:44;14.60;98.50
60309;DHT22;50313;52.894;6.492;2023-03-23T16:30:26;14.70;99.60
60309;DHT22;50313;52.894;6.492;2023-03-23T16:32:53;14.80;99.50
60309;DHT22;50313;52.894;6.492;2023-03-23T16:35:20;15.20;99.30
60309;DHT22;50313;52.894;6.492;2023-03-23T16:37:47;15.10;98.30
60309;DHT22;50313;52.894;6.492;2023-03-23T16:40:14;14.80;98.80
60309;DHT22;50313;52.894;6.492;2023-03-23T16:42:40;14.70;99.50
60309;DHT22;50313;52.894;6.492;2023-03-23T16:45:07;14.70;99.30
60309;DHT22;50313;52.894;6.492;2023-03-23T16:47:41;14.80;99.60
60309;DHT22;50313;52.894;6.492;2023-03-23T16:50:10;14.50;99.90
60309;DHT22;50313;52.894;6.492;2023-03-23T16:52:38;14.20;99.90
60309;DHT22;50313;52.894;6.492;2023-03-23T16:55:04;14.10;99.90
60309;DHT22;50313;52.894;6.492;2023-03-23T16:57:33;14.10;99.90
60309;DHT22;50313;52.894;6.492;2023-03-23T17:00:23;13.70;99.90
60309;DHT22;50313;52.894;6.492;2023-03-23T17:02:54;13.60;99.90
60309;DHT22;50313;52.894;6.492;2023-03-23T17:05:27;13.50;99.90
60309;DHT22;50313;52.894;6.492;2023-03-23T17:07:53;13.30;99.90
60309;DHT22;50313;52.894;6.492;2023-03-23T17:10:25;13.30;99.90
60309;DHT22;50313;52.894;6.492;2023-03-23T17:12:54;13.30;99.90
60309;DHT22;50313;52.894;6.492;2023-03-23T17:15:20;13.20;99.90
60309;DHT22;50313;52.894;6.492;2023-03-23T17:17:53;13.10;99.90
60309;DHT22;50313;52.894;6.492;2023-03-23T17:20:19;13.10;99.90
60309;DHT22;50313;52.894;6.492;2023-03-23T17:22:45;13.00;99.90
60309;DHT22;50313;52.894;6.492;2023-03-23T17:25:14;12.90;99.90
60309;DHT22;50313;52.894;6.492;2023-03-23T17:27:40;12.90;99.90
60309;DHT22;50313;52.894;6.492;2023-03-23T17:30:07;12.80;99.90
60309;DHT22;50313;52.894;6.492;2023-03-23T17:32:33;12.80;99.90
60309;DHT22;50313;52.894;6.492;2023-03-23T17:38:05;12.60;99.90
60309;DHT22;50313;52.894;6.492;2023-03-23T17:40:31;12.50;99.90
60309;DHT22;50313;52.894;6.492;2023-03-23T17:42:57;12.50;99.90
60309;DHT22;50313;52.894;6.492;2023-03-23T17:45:23;12.40;99.90
60309;DHT22;50313;52.894;6.492;2023-03-23T17:47:48;12.40;99.90
60309;DHT22;50313;52.894;6.492;2023-03-23T17:50:14;12.30;99.90
60309;DHT22;50313;52.894;6.492;2023-03-23T17:52:40;12.30;99.90
60309;DHT22;50313;52.894;6.492;2023-03-23T17:55:11;12.30;99.90
60309;DHT22;50313;52.894;6.492;2023-03-23T17:57:37;12.20;99.90
60309;DHT22;50313;52.894;6.492;2023-03-23T18:00:03;12.20;99.90